sensor_id;sensor_type;location;lat;lon;timestamp;P1;durP1;ratioP1;P2;durP2;ratioP2
37831;SDS011;23671;38.090;-122.570;2022-08-24T00:00:22;0.45;;;0.45;;
37831;SDS011;23671;38.090;-122.570;2022-08-24T00:02:50;1.77;;;0.90;;
37831;SDS011;23671;38.090;-122.570;2022-08-24T00:05:17;2.33;;;0.40;;
37831;SDS011;23671;38.090;-122.570;2022-08-24T00:07:48;1.10;;;0.63;;
37831;SDS011;23671;38.090;-122.570;2022-08-24T00:10:16;1.50;;;0.60;;
37831;SDS011;23671;38.090;-122.570;2022-08-24T00:12:45;1.00;;;0.50;;
37831;SDS011;23671;38.090;-122.570;2022-08-24T00:15:12;1.00;;;0.50;;
37831;SDS011;23671;38.090;-122.570;2022-08-24T00:17:40;0.60;;;0.55;;
37831;SDS011;23671;38.090;-122.570;2022-08-24T00:20:09;1.67;;;0.77;;
37831;SDS011;23671;38.090;-122.570;2022-08-24T00:22:38;1.05;;;0.60;;
37831;SDS011;23671;38.090;-122.570;2022-08-24T00:25:05;1.17;;;0.60;;
37831;SDS011;23671;38.090;-122.570;2022-08-24T00:27:34;0.50;;;0.50;;
37831;SDS011;23671;38.090;-122.570;2022-08-24T00:30:03;2.20;;;0.40;;
37831;SDS011;23671;38.090;-122.570;2022-08-24T00:32:32;0.93;;;0.63;;
37831;SDS011;23671;38.090;-122.570;2022-08-24T00:35:04;1.58;;;0.40;;
37831;SDS011;23671;38.090;-122.570;2022-08-24T00:37:33;0.68;;;0.50;;
37831;SDS011;23671;38.090;-122.570;2022-08-24T00:40:01;1.50;;;0.60;;
37831;SDS011;23671;38.090;-122.570;2022-08-24T00:42:36;2.25;;;0.75;;
37831;SDS011;23671;38.090;-122.570;2022-08-24T00:45:04;1.00;;;0.60;;
37831;SDS011;23671;38.090;-122.570;2022-08-24T00:47:36;3.80;;;0.70;;
37831;SDS011;23671;38.090;-122.570;2022-08-24T00:50:11;0.70;;;0.70;;
37831;SDS011;23671;38.090;-122.570;2022-08-24T00:52:52;1.35;;;0.70;;
37831;SDS011;23671;38.090;-122.570;2022-08-24T00:55:34;1.10;;;0.85;;
37831;SDS011;23671;38.090;-122.570;2022-08-24T00:58:11;1.38;;;0.88;;
37831;SDS011;23671;38.090;-122.570;2022-08-24T01:00:50;0.90;;;0.68;;
37831;SDS011;23671;38.090;-122.570;2022-08-24T01:03:21;0.88;;;0.70;;
37831;SDS011;23671;38.090;-122.570;2022-08-24T01:05:51;1.13;;;0.60;;
37831;SDS011;23671;38.090;-122.570;2022-08-24T01:08:19;0.75;;;0.75;;
37831;SDS011;23671;38.090;-122.570;2022-08-24T01:11:07;0.65;;;0.55;;
37831;SDS011;23671;38.090;-122.570;2022-08-24T01:13:38;1.45;;;0.70;;
37831;SDS011;23671;38.090;-122.570;2022-08-24T01:16:09;1.90;;;0.70;;
37831;SDS011;23671;38.090;-122.570;2022-08-24T01:18:37;0.70;;;0.70;;
37831;SDS011;23671;38.090;-122.570;2022-08-24T01:23:54;4.85;;;1.13;;
37831;SDS011;23671;38.090;-122.570;2022-08-24T01:26:59;7.50;;;2.25;;
37831;SDS011;23671;38.090;-122.570;2022-08-24T01:29:23;4.78;;;1.27;;
37831;SDS011;23671;38.090;-122.570;2022-08-24T01:31:55;5.00;;;1.58;;
37831;SDS011;23671;38.090;-122.570;2022-08-24T01:34:22;3.97;;;1.40;;
37831;SDS011;23671;38.090;-122.570;2022-08-24T01:36:53;7.20;;;1.27;;
37831;SDS011;23671;38.090;-122.570;2022-08-24T01:39:27;1.52;;;0.95;;
37831;SDS011;23671;38.090;-122.570;2022-08-24T01:42:00;5.18;;;1.15;;
37831;SDS011;23671;38.090;-122.570;2022-08-24T01:44:29;4.10;;;1.10;;
37831;SDS011;23671;38.090;-122.570;2022-08-24T01:46:59;3.33;;;1.10;;
37831;SDS011;23671;38.090;-122.570;2022-08-24T01:49:29;1.42;;;0.93;;
37831;SDS011;23671;38.090;-122.570;2022-08-24T01:51:58;3.08;;;0.90;;
37831;SDS011;23671;38.090;-122.570;2022-08-24T01:54:25;3.43;;;1.10;;
37831;SDS011;23671;38.090;-122.570;2022-08-24T01:56:53;1.40;;;0.90;;
37831;SDS011;23671;38.090;-122.570;2022-08-24T01:59:20;3.17;;;1.10;;
37831;SDS011;23671;38.090;-122.570;2022-08-24T02:01:52;2.08;;;1.15;;
37831;SDS011;23671;38.090;-122.570;2022-08-24T02:04:28;3.22;;;1.20;;
37831;SDS011;23671;38.090;-122.570;2022-08-24T02:06:57;3.95;;;1.00;;
37831;SDS011;23671;38.090;-122.570;2022-08-24T02:09:25;3.95;;;1.08;;
37831;SDS011;23671;38.090;-122.570;2022-08-24T02:11:52;2.25;;;1.10;;
37831;SDS011;23671;38.090;-122.570;2022-08-24T02:14:19;3.70;;;1.35;;
37831;SDS011;23671;38.090;-122.570;2022-08-24T02:16:46;1.05;;;0.95;;
37831;SDS011;23671;38.090;-122.570;2022-08-24T02:19:13;2.88;;;1.00;;
37831;SDS011;23671;38.090;-122.570;2022-08-24T02:21:40;1.75;;;0.82;;
37831;SDS011;23671;38.090;-122.570;2022-08-24T02:24:07;2.80;;;1.27;;
37831;SDS011;23671;38.090;-122.570;2022-08-24T02:26:34;3.55;;;1.08;;
37831;SDS011;23671;38.090;-122.570;2022-08-24T02:29:02;4.10;;;1.20;;
37831;SDS011;23671;38.090;-122.570;2022-08-24T02:31:29;2.08;;;1.23;;
37831;SDS011;23671;38.090;-122.570;2022-08-24T02:33:56;3.38;;;1.27;;
37831;SDS011;23671;38.090;-122.570;2022-08-24T02:36:26;3.33;;;1.50;;
37831;SDS011;23671;38.090;-122.570;2022-08-24T02:38:58;1.83;;;1.10;;
37831;SDS011;23671;38.090;-122.570;2022-08-24T02:41:25;3.03;;;1.20;;
37831;SDS011;23671;38.090;-122.570;2022-08-24T02:43:53;1.42;;;1.17;;
37831;SDS011;23671;38.090;-122.570;2022-08-24T02:46:22;3.22;;;1.13;;
37831;SDS011;23671;38.090;-122.570;2022-08-24T02:48:51;1.50;;;1.00;;
37831;SDS011;23671;38.090;-122.570;2022-08-24T02:51:20;2.65;;;1.10;;
37831;SDS011;23671;38.090;-122.570;2022-08-24T02:53:49;2.10;;;1.33;;
37831;SDS011;23671;38.090;-122.570;2022-08-24T02:56:17;2.95;;;1.23;;
37831;SDS011;23671;38.090;-122.570;2022-08-24T02:58:45;2.65;;;1.17;;
37831;SDS011;23671;38.090;-122.570;2022-08-24T03:01:13;3.22;;;1.35;;
37831;SDS011;23671;38.090;-122.570;2022-08-24T03:03:42;5.78;;;1.27;;
37831;SDS011;23671;38.090;-122.570;2022-08-24T03:06:10;2.97;;;1.40;;
37831;SDS011;23671;38.090;-122.570;2022-08-24T03:08:37;2.38;;;1.30;;
37831;SDS011;23671;38.090;-122.570;2022-08-24T03:11:04;1.48;;;1.30;;
37831;SDS011;23671;38.090;-122.570;2022-08-24T03:13:33;1.95;;;1.40;;
37831;SDS011;23671;38.090;-122.570;2022-08-24T03:16:01;1.95;;;0.90;;
37831;SDS011;23671;38.090;-122.570;2022-08-24T03:18:29;2.17;;;1.35;;
37831;SDS011;23671;38.090;-122.570;2022-08-24T03:20:57;1.33;;;1.10;;
37831;SDS011;23671;38.090;-122.570;2022-08-24T03:25:52;1.65;;;1.23;;
37831;SDS011;23671;38.090;-122.570;2022-08-24T03:30:48;3.08;;;1.38;;
37831;SDS011;23671;38.090;-122.570;2022-08-24T03:33:15;2.15;;;1.25;;
37831;SDS011;23671;38.090;-122.570;2022-08-24T03:35:42;3.53;;;1.50;;
37831;SDS011;23671;38.090;-122.570;2022-08-24T03:38:10;2.13;;;1.25;;
37831;SDS011;23671;38.090;-122.570;2022-08-24T03:40:38;1.53;;;1.33;;
37831;SDS011;23671;38.090;-122.570;2022-08-24T03:43:08;2.17;;;1.38;;
37831;SDS011;23671;38.090;-122.570;2022-08-24T03:45:55;2.63;;;1.70;;
37831;SDS011;23671;38.090;-122.570;2022-08-24T03:48:23;1.67;;;1.00;;
37831;SDS011;23671;38.090;-122.570;2022-08-24T03:50:50;2.40;;;1.33;;
37831;SDS011;23671;38.090;-122.570;2022-08-24T03:53:17;1.90;;;1.40;;
37831;SDS011;23671;38.090;-122.570;2022-08-24T03:55:44;1.48;;;1.10;;
37831;SDS011;23671;38.090;-122.570;2022-08-24T03:58:11;2.17;;;1.77;;
37831;SDS011;23671;38.090;-122.570;2022-08-24T04:00:38;2.53;;;1.30;;
37831;SDS011;23671;38.090;-122.570;2022-08-24T04:03:08;1.92;;;1.30;;
37831;SDS011;23671;38.090;-122.570;2022-08-24T04:05:36;2.03;;;1.25;;
37831;SDS011;23671;38.090;-122.570;2022-08-24T04:08:04;2.45;;;1.50;;
37831;SDS011;23671;38.090;-122.570;2022-08-24T04:10:31;1.88;;;1.25;;
37831;SDS011;23671;38.090;-122.570;2022-08-24T04:12:59;2.28;;;1.33;;
37831;SDS011;23671;38.090;-122.570;2022-08-24T04:15:26;2.67;;;1.60;;
37831;SDS011;23671;38.090;-122.570;2022-08-24T04:17:55;1.80;;;1.15;;
37831;SDS011;23671;38.090;-122.570;2022-08-24T04:20:22;2.00;;;1.30;;
37831;SDS011;23671;38.090;-122.570;2022-08-24T04:22:50;2.33;;;1.40;;
37831;SDS011;23671;38.090;-122.570;2022-08-24T04:25:18;1.60;;;1.40;;
37831;SDS011;23671;38.090;-122.570;2022-08-24T04:27:45;3.15;;;1.70;;
37831;SDS011;23671;38.090;-122.570;2022-08-24T04:30:12;1.40;;;1.30;;
37831;SDS011;23671;38.090;-122.570;2022-08-24T04:32:39;2.33;;;1.40;;
37831;SDS011;23671;38.090;-122.570;2022-08-24T04:35:06;2.10;;;1.40;;
37831;SDS011;23671;38.090;-122.570;2022-08-24T04:37:34;2.33;;;1.38;;
37831;SDS011;23671;38.090;-122.570;2022-08-24T04:40:01;2.00;;;1.60;;
37831;SDS011;23671;38.090;-122.570;2022-08-24T04:42:29;2.45;;;1.45;;
37831;SDS011;23671;38.090;-122.570;2022-08-24T04:44:57;2.25;;;1.30;;
37831;SDS011;23671;38.090;-122.570;2022-08-24T04:47:24;3.30;;;1.40;;
37831;SDS011;23671;38.090;-122.570;2022-08-24T04:49:51;1.95;;;1.38;;
37831;SDS011;23671;38.090;-122.570;2022-08-24T04:52:18;2.03;;;1.52;;
37831;SDS011;23671;38.090;-122.570;2022-08-24T04:54:45;2.20;;;1.77;;
37831;SDS011;23671;38.090;-122.570;2022-08-24T04:57:12;2.85;;;1.70;;
37831;SDS011;23671;38.090;-122.570;2022-08-24T04:59:39;3.63;;;1.38;;
37831;SDS011;23671;38.090;-122.570;2022-08-24T05:02:08;3.35;;;1.70;;
37831;SDS011;23671;38.090;-122.570;2022-08-24T05:04:35;2.67;;;1.50;;
37831;SDS011;23671;38.090;-122.570;2022-08-24T05:07:02;2.55;;;1.73;;
37831;SDS011;23671;38.090;-122.570;2022-08-24T05:09:29;2.63;;;1.48;;
37831;SDS011;23671;38.090;-122.570;2022-08-24T05:11:56;3.42;;;1.50;;
37831;SDS011;23671;38.090;-122.570;2022-08-24T05:14:24;2.63;;;1.73;;
37831;SDS011;23671;38.090;-122.570;2022-08-24T05:16:51;3.60;;;1.80;;
37831;SDS011;23671;38.090;-122.570;2022-08-24T05:19:18;2.88;;;1.77;;
37831;SDS011;23671;38.090;-122.570;2022-08-24T05:24:14;3.90;;;1.90;;
37831;SDS011;23671;38.090;-122.570;2022-08-24T05:26:41;3.15;;;1.40;;
37831;SDS011;23671;38.090;-122.570;2022-08-24T05:29:08;3.97;;;1.48;;
37831;SDS011;23671;38.090;-122.570;2022-08-24T05:31:35;4.10;;;2.05;;
37831;SDS011;23671;38.090;-122.570;2022-08-24T05:34:03;3.92;;;1.70;;
37831;SDS011;23671;38.090;-122.570;2022-08-24T05:36:31;2.63;;;1.60;;
37831;SDS011;23671;38.090;-122.570;2022-08-24T05:39:03;2.58;;;1.90;;
37831;SDS011;23671;38.090;-122.570;2022-08-24T05:41:33;3.72;;;1.60;;
37831;SDS011;23671;38.090;-122.570;2022-08-24T05:44:00;3.50;;;1.73;;
37831;SDS011;23671;38.090;-122.570;2022-08-24T05:46:28;2.67;;;1.60;;
37831;SDS011;23671;38.090;-122.570;2022-08-24T05:48:56;2.65;;;1.52;;
37831;SDS011;23671;38.090;-122.570;2022-08-24T05:51:23;3.28;;;1.60;;
37831;SDS011;23671;38.090;-122.570;2022-08-24T05:53:51;3.83;;;1.60;;
37831;SDS011;23671;38.090;-122.570;2022-08-24T05:56:18;4.35;;;2.00;;
37831;SDS011;23671;38.090;-122.570;2022-08-24T05:58:46;2.28;;;1.42;;
37831;SDS011;23671;38.090;-122.570;2022-08-24T06:01:14;3.53;;;2.15;;
37831;SDS011;23671;38.090;-122.570;2022-08-24T06:03:46;3.40;;;2.05;;
37831;SDS011;23671;38.090;-122.570;2022-08-24T06:06:15;2.95;;;1.50;;
37831;SDS011;23671;38.090;-122.570;2022-08-24T06:08:44;2.97;;;1.73;;
37831;SDS011;23671;38.090;-122.570;2022-08-24T06:11:20;3.42;;;1.88;;
37831;SDS011;23671;38.090;-122.570;2022-08-24T06:13:52;3.95;;;1.92;;
37831;SDS011;23671;38.090;-122.570;2022-08-24T06:16:20;3.20;;;1.80;;
37831;SDS011;23671;38.090;-122.570;2022-08-24T06:18:48;4.30;;;1.40;;
37831;SDS011;23671;38.090;-122.570;2022-08-24T06:21:19;1.98;;;1.45;;
37831;SDS011;23671;38.090;-122.570;2022-08-24T06:23:47;2.33;;;1.63;;
37831;SDS011;23671;38.090;-122.570;2022-08-24T06:26:15;3.20;;;1.70;;
37831;SDS011;23671;38.090;-122.570;2022-08-24T06:29:02;2.38;;;1.70;;
37831;SDS011;23671;38.090;-122.570;2022-08-24T06:31:30;2.70;;;1.55;;
37831;SDS011;23671;38.090;-122.570;2022-08-24T06:34:00;4.03;;;1.65;;
37831;SDS011;23671;38.090;-122.570;2022-08-24T06:36:27;3.33;;;1.50;;
37831;SDS011;23671;38.090;-122.570;2022-08-24T06:38:54;2.72;;;1.67;;
37831;SDS011;23671;38.090;-122.570;2022-08-24T06:41:21;3.10;;;1.60;;
37831;SDS011;23671;38.090;-122.570;2022-08-24T06:43:49;4.43;;;2.03;;
37831;SDS011;23671;38.090;-122.570;2022-08-24T06:46:17;3.28;;;1.73;;
37831;SDS011;23671;38.090;-122.570;2022-08-24T06:48:44;2.80;;;1.88;;
37831;SDS011;23671;38.090;-122.570;2022-08-24T06:51:13;2.78;;;1.52;;
37831;SDS011;23671;38.090;-122.570;2022-08-24T06:53:41;3.10;;;1.70;;
37831;SDS011;23671;38.090;-122.570;2022-08-24T06:56:09;3.50;;;1.80;;
37831;SDS011;23671;38.090;-122.570;2022-08-24T06:58:37;3.38;;;1.52;;
37831;SDS011;23671;38.090;-122.570;2022-08-24T07:01:09;1.88;;;1.55;;
37831;SDS011;23671;38.090;-122.570;2022-08-24T07:03:41;3.55;;;1.80;;
37831;SDS011;23671;38.090;-122.570;2022-08-24T07:06:09;2.40;;;1.33;;
37831;SDS011;23671;38.090;-122.570;2022-08-24T07:08:38;2.08;;;1.40;;
37831;SDS011;23671;38.090;-122.570;2022-08-24T07:11:09;3.65;;;1.90;;
37831;SDS011;23671;38.090;-122.570;2022-08-24T07:13:39;3.67;;;1.80;;
37831;SDS011;23671;38.090;-122.570;2022-08-24T07:16:07;2.58;;;1.52;;
37831;SDS011;23671;38.090;-122.570;2022-08-24T07:18:34;3.72;;;1.60;;
37831;SDS011;23671;38.090;-122.570;2022-08-24T07:21:02;4.40;;;1.63;;
37831;SDS011;23671;38.090;-122.570;2022-08-24T07:23:30;2.55;;;1.58;;
37831;SDS011;23671;38.090;-122.570;2022-08-24T07:26:03;3.03;;;2.03;;
37831;SDS011;23671;38.090;-122.570;2022-08-24T07:28:35;3.50;;;2.05;;
37831;SDS011;23671;38.090;-122.570;2022-08-24T07:31:03;3.58;;;1.90;;
37831;SDS011;23671;38.090;-122.570;2022-08-24T07:33:30;3.10;;;1.50;;
37831;SDS011;23671;38.090;-122.570;2022-08-24T07:35:58;3.47;;;1.70;;
37831;SDS011;23671;38.090;-122.570;2022-08-24T07:38:25;2.28;;;1.38;;
37831;SDS011;23671;38.090;-122.570;2022-08-24T07:40:52;2.63;;;1.42;;
37831;SDS011;23671;38.090;-122.570;2022-08-24T07:43:19;3.47;;;1.85;;
37831;SDS011;23671;38.090;-122.570;2022-08-24T07:45:47;2.90;;;1.60;;
37831;SDS011;23671;38.090;-122.570;2022-08-24T07:48:16;4.28;;;1.92;;
37831;SDS011;23671;38.090;-122.570;2022-08-24T07:50:44;4.63;;;1.70;;
37831;SDS011;23671;38.090;-122.570;2022-08-24T07:53:12;3.45;;;1.48;;
37831;SDS011;23671;38.090;-122.570;2022-08-24T07:55:39;3.38;;;1.70;;
37831;SDS011;23671;38.090;-122.570;2022-08-24T07:58:08;2.45;;;1.60;;
37831;SDS011;23671;38.090;-122.570;2022-08-24T08:00:35;3.97;;;1.60;;
37831;SDS011;23671;38.090;-122.570;2022-08-24T08:03:02;4.05;;;1.92;;
37831;SDS011;23671;38.090;-122.570;2022-08-24T08:05:29;2.95;;;1.63;;
37831;SDS011;23671;38.090;-122.570;2022-08-24T08:07:56;3.10;;;1.80;;
37831;SDS011;23671;38.090;-122.570;2022-08-24T08:10:23;3.03;;;1.63;;
37831;SDS011;23671;38.090;-122.570;2022-08-24T08:12:54;2.45;;;1.52;;
37831;SDS011;23671;38.090;-122.570;2022-08-24T08:15:21;3.83;;;2.13;;
37831;SDS011;23671;38.090;-122.570;2022-08-24T08:17:50;2.83;;;1.52;;
37831;SDS011;23671;38.090;-122.570;2022-08-24T08:20:17;2.55;;;1.85;;
37831;SDS011;23671;38.090;-122.570;2022-08-24T08:22:44;1.63;;;1.13;;
37831;SDS011;23671;38.090;-122.570;2022-08-24T08:25:30;3.00;;;1.67;;
37831;SDS011;23671;38.090;-122.570;2022-08-24T08:27:59;3.78;;;1.60;;
37831;SDS011;23671;38.090;-122.570;2022-08-24T08:30:26;3.05;;;1.90;;
37831;SDS011;23671;38.090;-122.570;2022-08-24T08:32:53;3.10;;;1.65;;
37831;SDS011;23671;38.090;-122.570;2022-08-24T08:35:20;2.28;;;1.42;;
37831;SDS011;23671;38.090;-122.570;2022-08-24T08:37:47;2.72;;;1.63;;
37831;SDS011;23671;38.090;-122.570;2022-08-24T08:43:42;1.88;;;1.33;;
37831;SDS011;23671;38.090;-122.570;2022-08-24T08:52:14;3.22;;;1.52;;
37831;SDS011;23671;38.090;-122.570;2022-08-24T08:54:58;4.57;;;1.80;;
37831;SDS011;23671;38.090;-122.570;2022-08-24T08:57:44;3.70;;;1.67;;
37831;SDS011;23671;38.090;-122.570;2022-08-24T09:22:43;2.55;;;1.17;;
37831;SDS011;23671;38.090;-122.570;2022-08-24T09:28:44;4.68;;;1.60;;
37831;SDS011;23671;38.090;-122.570;2022-08-24T09:42:30;2.15;;;1.40;;
37831;SDS011;23671;38.090;-122.570;2022-08-24T09:45:16;2.25;;;1.60;;
37831;SDS011;23671;38.090;-122.570;2022-08-24T10:05:17;2.42;;;1.48;;
37831;SDS011;23671;38.090;-122.570;2022-08-24T10:11:13;2.75;;;1.40;;
37831;SDS011;23671;38.090;-122.570;2022-08-24T10:19:35;2.80;;;1.35;;
37831;SDS011;23671;38.090;-122.570;2022-08-24T10:33:14;3.30;;;1.60;;
37831;SDS011;23671;38.090;-122.570;2022-08-24T10:45:10;3.72;;;1.67;;
37831;SDS011;23671;38.090;-122.570;2022-08-24T10:50:58;3.05;;;1.40;;
37831;SDS011;23671;38.090;-122.570;2022-08-24T10:53:29;2.58;;;1.50;;
37831;SDS011;23671;38.090;-122.570;2022-08-24T10:56:08;2.78;;;1.73;;
37831;SDS011;23671;38.090;-122.570;2022-08-24T10:58:45;2.75;;;1.35;;
37831;SDS011;23671;38.090;-122.570;2022-08-24T11:01:57;3.08;;;1.55;;
37831;SDS011;23671;38.090;-122.570;2022-08-24T11:04:33;2.70;;;1.52;;
37831;SDS011;23671;38.090;-122.570;2022-08-24T11:07:06;1.57;;;1.30;;
37831;SDS011;23671;38.090;-122.570;2022-08-24T11:12:17;1.95;;;1.60;;
37831;SDS011;23671;38.090;-122.570;2022-08-24T11:14:49;4.30;;;1.60;;
37831;SDS011;23671;38.090;-122.570;2022-08-24T11:17:18;2.70;;;1.45;;
37831;SDS011;23671;38.090;-122.570;2022-08-24T11:19:47;4.43;;;1.85;;
37831;SDS011;23671;38.090;-122.570;2022-08-24T11:22:36;3.10;;;1.50;;
37831;SDS011;23671;38.090;-122.570;2022-08-24T11:25:21;3.53;;;1.65;;
37831;SDS011;23671;38.090;-122.570;2022-08-24T11:27:56;2.63;;;1.50;;
37831;SDS011;23671;38.090;-122.570;2022-08-24T11:30:37;2.58;;;2.05;;
37831;SDS011;23671;38.090;-122.570;2022-08-24T11:33:05;2.75;;;1.38;;
37831;SDS011;23671;38.090;-122.570;2022-08-24T11:35:54;2.47;;;1.48;;
37831;SDS011;23671;38.090;-122.570;2022-08-24T11:38:23;2.47;;;1.58;;
37831;SDS011;23671;38.090;-122.570;2022-08-24T11:41:06;2.97;;;1.60;;
37831;SDS011;23671;38.090;-122.570;2022-08-24T11:49:27;4.13;;;1.95;;
37831;SDS011;23671;38.090;-122.570;2022-08-24T12:00:11;3.42;;;1.48;;
37831;SDS011;23671;38.090;-122.570;2022-08-24T12:06:04;2.75;;;1.80;;
37831;SDS011;23671;38.090;-122.570;2022-08-24T12:11:17;1.65;;;1.42;;
37831;SDS011;23671;38.090;-122.570;2022-08-24T12:15:06;2.63;;;1.48;;
37831;SDS011;23671;38.090;-122.570;2022-08-24T12:17:22;3.85;;;1.83;;
37831;SDS011;23671;38.090;-122.570;2022-08-24T12:19:54;2.95;;;1.95;;
37831;SDS011;23671;38.090;-122.570;2022-08-24T12:22:34;2.47;;;1.55;;
37831;SDS011;23671;38.090;-122.570;2022-08-24T12:25:03;3.78;;;1.73;;
37831;SDS011;23671;38.090;-122.570;2022-08-24T12:27:52;3.00;;;1.47;;
37831;SDS011;23671;38.090;-122.570;2022-08-24T12:30:20;2.37;;;1.67;;
37831;SDS011;23671;38.090;-122.570;2022-08-24T12:32:50;2.47;;;1.70;;
37831;SDS011;23671;38.090;-122.570;2022-08-24T12:35:35;2.85;;;1.75;;
37831;SDS011;23671;38.090;-122.570;2022-08-24T12:38:28;2.78;;;1.70;;
37831;SDS011;23671;38.090;-122.570;2022-08-24T12:41:35;2.25;;;1.42;;
37831;SDS011;23671;38.090;-122.570;2022-08-24T12:44:14;3.03;;;1.58;;
37831;SDS011;23671;38.090;-122.570;2022-08-24T12:46:42;3.10;;;1.37;;
37831;SDS011;23671;38.090;-122.570;2022-08-24T12:49:27;4.68;;;1.90;;
37831;SDS011;23671;38.090;-122.570;2022-08-24T12:52:10;3.03;;;1.60;;
37831;SDS011;23671;38.090;-122.570;2022-08-24T12:58:07;2.72;;;1.42;;
37831;SDS011;23671;38.090;-122.570;2022-08-24T13:01:11;1.75;;;1.42;;
37831;SDS011;23671;38.090;-122.570;2022-08-24T13:03:41;2.30;;;1.40;;
37831;SDS011;23671;38.090;-122.570;2022-08-24T13:06:27;2.22;;;1.63;;
37831;SDS011;23671;38.090;-122.570;2022-08-24T13:09:15;2.47;;;1.75;;
37831;SDS011;23671;38.090;-122.570;2022-08-24T13:11:54;2.83;;;1.58;;
37831;SDS011;23671;38.090;-122.570;2022-08-24T13:14:24;2.90;;;1.47;;
37831;SDS011;23671;38.090;-122.570;2022-08-24T13:21:56;3.20;;;1.88;;
37831;SDS011;23671;38.090;-122.570;2022-08-24T13:24:50;1.58;;;1.20;;
37831;SDS011;23671;38.090;-122.570;2022-08-24T13:30:07;3.78;;;1.50;;
37831;SDS011;23671;38.090;-122.570;2022-08-24T13:32:48;1.35;;;1.20;;
37831;SDS011;23671;38.090;-122.570;2022-08-24T13:35:35;2.25;;;1.38;;
37831;SDS011;23671;38.090;-122.570;2022-08-24T13:49:09;1.70;;;1.25;;
37831;SDS011;23671;38.090;-122.570;2022-08-24T13:51:47;2.75;;;1.40;;
37831;SDS011;23671;38.090;-122.570;2022-08-24T13:54:48;2.78;;;1.45;;
37831;SDS011;23671;38.090;-122.570;2022-08-24T13:57:43;2.03;;;1.17;;
37831;SDS011;23671;38.090;-122.570;2022-08-24T14:00:38;1.58;;;1.17;;
37831;SDS011;23671;38.090;-122.570;2022-08-24T14:11:58;2.40;;;1.30;;
37831;SDS011;23671;38.090;-122.570;2022-08-24T14:25:46;2.45;;;1.38;;
37831;SDS011;23671;38.090;-122.570;2022-08-24T14:31:20;2.60;;;1.20;;
37831;SDS011;23671;38.090;-122.570;2022-08-24T14:50:19;2.05;;;1.00;;
37831;SDS011;23671;38.090;-122.570;2022-08-24T14:55:37;2.35;;;0.90;;
37831;SDS011;23671;38.090;-122.570;2022-08-24T15:01:24;2.05;;;1.00;;
37831;SDS011;23671;38.090;-122.570;2022-08-24T15:07:24;1.85;;;1.20;;
37831;SDS011;23671;38.090;-122.570;2022-08-24T15:09:58;1.35;;;1.15;;
37831;SDS011;23671;38.090;-122.570;2022-08-24T15:14:57;1.23;;;1.13;;
37831;SDS011;23671;38.090;-122.570;2022-08-24T15:17:46;1.52;;;1.13;;
37831;SDS011;23671;38.090;-122.570;2022-08-24T15:26:14;1.30;;;1.20;;
37831;SDS011;23671;38.090;-122.570;2022-08-24T15:28:47;1.08;;;0.98;;
37831;SDS011;23671;38.090;-122.570;2022-08-24T15:31:20;2.22;;;1.00;;
37831;SDS011;23671;38.090;-122.570;2022-08-24T15:34:02;1.52;;;1.00;;
37831;SDS011;23671;38.090;-122.570;2022-08-24T15:36:30;2.00;;;1.00;;
37831;SDS011;23671;38.090;-122.570;2022-08-24T15:38:59;2.67;;;1.35;;
37831;SDS011;23671;38.090;-122.570;2022-08-24T15:41:36;1.40;;;1.00;;
37831;SDS011;23671;38.090;-122.570;2022-08-24T15:44:07;1.65;;;1.08;;
37831;SDS011;23671;38.090;-122.570;2022-08-24T15:46:43;1.52;;;1.00;;
37831;SDS011;23671;38.090;-122.570;2022-08-24T15:54:55;1.10;;;1.00;;
37831;SDS011;23671;38.090;-122.570;2022-08-24T15:57:28;1.83;;;1.13;;
37831;SDS011;23671;38.090;-122.570;2022-08-24T16:00:08;2.67;;;1.00;;
37831;SDS011;23671;38.090;-122.570;2022-08-24T16:02:37;1.55;;;1.10;;
37831;SDS011;23671;38.090;-122.570;2022-08-24T16:10:39;2.15;;;1.02;;
37831;SDS011;23671;38.090;-122.570;2022-08-24T16:18:49;2.20;;;1.30;;
37831;SDS011;23671;38.090;-122.570;2022-08-24T16:21:29;2.72;;;0.98;;
37831;SDS011;23671;38.090;-122.570;2022-08-24T16:23:59;2.22;;;1.20;;
37831;SDS011;23671;38.090;-122.570;2022-08-24T16:26:50;2.75;;;1.20;;
37831;SDS011;23671;38.090;-122.570;2022-08-24T16:34:48;2.15;;;1.30;;
37831;SDS011;23671;38.090;-122.570;2022-08-24T16:37:18;1.67;;;1.00;;
37831;SDS011;23671;38.090;-122.570;2022-08-24T16:39:47;2.65;;;1.17;;
37831;SDS011;23671;38.090;-122.570;2022-08-24T16:42:21;3.30;;;1.00;;
37831;SDS011;23671;38.090;-122.570;2022-08-24T16:44:51;2.20;;;1.02;;
37831;SDS011;23671;38.090;-122.570;2022-08-24T16:47:19;2.35;;;1.20;;
37831;SDS011;23671;38.090;-122.570;2022-08-24T16:49:47;1.15;;;1.05;;
37831;SDS011;23671;38.090;-122.570;2022-08-24T16:52:15;1.40;;;0.90;;
37831;SDS011;23671;38.090;-122.570;2022-08-24T16:54:43;1.90;;;1.10;;
37831;SDS011;23671;38.090;-122.570;2022-08-24T16:57:12;2.05;;;1.20;;
37831;SDS011;23671;38.090;-122.570;2022-08-24T16:59:45;2.28;;;1.17;;
37831;SDS011;23671;38.090;-122.570;2022-08-24T17:02:14;2.03;;;1.10;;
37831;SDS011;23671;38.090;-122.570;2022-08-24T17:04:42;2.00;;;1.30;;
37831;SDS011;23671;38.090;-122.570;2022-08-24T17:07:11;3.30;;;1.38;;
37831;SDS011;23671;38.090;-122.570;2022-08-24T17:09:42;1.95;;;1.13;;
37831;SDS011;23671;38.090;-122.570;2022-08-24T17:12:12;2.25;;;1.23;;
37831;SDS011;23671;38.090;-122.570;2022-08-24T17:14:39;1.83;;;1.13;;
37831;SDS011;23671;38.090;-122.570;2022-08-24T17:17:08;0.90;;;0.90;;
37831;SDS011;23671;38.090;-122.570;2022-08-24T17:19:49;2.05;;;1.15;;
37831;SDS011;23671;38.090;-122.570;2022-08-24T17:22:18;3.15;;;1.30;;
37831;SDS011;23671;38.090;-122.570;2022-08-24T17:24:48;2.28;;;1.30;;
37831;SDS011;23671;38.090;-122.570;2022-08-24T17:27:16;2.10;;;1.15;;
37831;SDS011;23671;38.090;-122.570;2022-08-24T17:29:44;2.17;;;1.33;;
37831;SDS011;23671;38.090;-122.570;2022-08-24T17:32:12;1.20;;;1.10;;
37831;SDS011;23671;38.090;-122.570;2022-08-24T17:34:40;2.37;;;1.43;;
37831;SDS011;23671;38.090;-122.570;2022-08-24T17:37:07;2.83;;;1.50;;
37831;SDS011;23671;38.090;-122.570;2022-08-24T17:39:35;2.25;;;1.27;;
37831;SDS011;23671;38.090;-122.570;2022-08-24T17:42:03;2.30;;;1.17;;
37831;SDS011;23671;38.090;-122.570;2022-08-24T17:44:30;2.33;;;1.27;;
37831;SDS011;23671;38.090;-122.570;2022-08-24T17:46:58;3.33;;;1.17;;
37831;SDS011;23671;38.090;-122.570;2022-08-24T17:49:28;2.85;;;1.40;;
37831;SDS011;23671;38.090;-122.570;2022-08-24T17:51:56;1.73;;;1.10;;
37831;SDS011;23671;38.090;-122.570;2022-08-24T17:54:23;1.77;;;1.15;;
37831;SDS011;23671;38.090;-122.570;2022-08-24T17:59:29;1.35;;;1.20;;
37831;SDS011;23671;38.090;-122.570;2022-08-24T18:02:03;1.90;;;1.15;;
37831;SDS011;23671;38.090;-122.570;2022-08-24T18:04:34;1.35;;;1.13;;
37831;SDS011;23671;38.090;-122.570;2022-08-24T18:07:06;1.20;;;1.10;;
37831;SDS011;23671;38.090;-122.570;2022-08-24T18:09:41;1.35;;;0.93;;
37831;SDS011;23671;38.090;-122.570;2022-08-24T18:12:14;2.22;;;1.27;;
37831;SDS011;23671;38.090;-122.570;2022-08-24T18:17:10;1.20;;;0.90;;
37831;SDS011;23671;38.090;-122.570;2022-08-24T18:19:42;1.55;;;0.80;;
37831;SDS011;23671;38.090;-122.570;2022-08-24T18:22:10;1.55;;;0.90;;
37831;SDS011;23671;38.090;-122.570;2022-08-24T18:24:37;1.20;;;1.00;;
37831;SDS011;23671;38.090;-122.570;2022-08-24T18:27:05;1.70;;;1.08;;
37831;SDS011;23671;38.090;-122.570;2022-08-24T18:29:39;1.27;;;0.95;;